Etusivu
METAR-TAF:

METAR-TAF

Lentoasemat :

Kasumigaura, Japani

Leveyspiiri: 36-02N, Pituuspiiri: 140-12E, korkeus merenpinnasta: 26 m

Tämänhetkinen sää

Tämä raportti tehtiin 4 tuntia ja 29 minuuttia sitten, kello 07.49 UTC
Tuuli 3 kn pohjoisen/luoteesta
Lämpötila 14°C
Kosteus 82%
Ilmanpaine 1018 hPa
Näkyvyys 10 km tai enemmän
Muutamia pilviä 1500 ft:n korkeudessa
Hajonneita pilviä 2500 ft:n korkeudessa

METAR: RJAK 130749Z 34003KT 9999 FEW015 BKN025 14/11 Q1018 RMK 1CU015 7SC025 A3007

Aika: 21:18 (12:18 UTC)


TAF: puuttuu

Säähavainnot ja -ennusteet yli 4000 lentoasemalta (METAR- ja TAF-raportit).

Käytössä olevat sääasemat on merkitty karttaan keltaisilla ja punaisilla pisteillä.

Aseta hiiri pisteen päälle nähdäksesi sääaseman nimen.

Klikkaa sitten nähdäksesi säähavainnot ja -ennusteet.

Kartan vaihtaminen: klikkaa mustalla rastilla varustettuja vihreitä pisteitä, niin voit zoomata sisään; viivalla varustettua vihreää pistettä, niin voit zoomata ulos tai vihreitä nuolia, niin pääset viereisille kartoille.


METAR-TAF: